Time;durP1;ratioP1;P1;durP2;ratioP2;P2;SDS_P1;SDS_P2;PMS_P1;PMS_P2;Temp;Humidity;BMP_temperature;BMP_pressure;BME280_temperature;BME280_humidity;BME280_pressure;Samples;Min_cycle;Max_cycle;Signal;HPM_P1;HPM_P2
2023/03/10 00:00:17;;;;;;;;;;;8.70;99.90;;;;;;4872239;29;20357;-64
2023/03/10 00:02:49;;;;;;;;;;;8.70;99.90;;;;;;4872242;29;19935;-64
2023/03/10 00:05:21;;;;;;;;;;;8.70;99.90;;;;;;4869408;29;20415;-64
2023/03/10 00:07:52;;;;;;;;;;;8.70;99.90;;;;;;4872499;29;19928;-64
2023/03/10 00:10:24;;;;;;;;;;;8.70;99.90;;;;;;4877082;29;19935;-64
2023/03/10 00:12:53;;;;;;;;;;;8.70;99.90;;;;;;4867578;29;19961;-63
2023/03/10 00:15:25;;;;;;;;;;;8.60;99.90;;;;;;4877115;29;19984;-64
2023/03/10 00:17:56;;;;;;;;;;;8.50;99.90;;;;;;4869791;29;19932;-64
2023/03/10 00:20:28;;;;;;;;;;;8.50;99.90;;;;;;4874952;29;19932;-64
2023/03/10 00:23:00;;;;;;;;;;;8.40;99.90;;;;;;4876947;29;19932;-63
2023/03/10 00:25:31;;;;;;;;;;;8.30;99.90;;;;;;4872750;29;19927;-63
2023/03/10 00:28:03;;;;;;;;;;;8.30;99.90;;;;;;4873379;29;19939;-64
2023/03/10 00:30:34;;;;;;;;;;;8.20;99.90;;;;;;4856154;29;19932;-64
2023/03/10 00:33:07;;;;;;;;;;;8.20;99.90;;;;;;4871113;29;19928;-64
2023/03/10 00:35:38;;;;;;;;;;;8.20;99.90;;;;;;4877432;29;19932;-64
2023/03/10 00:38:10;;;;;;;;;;;8.10;99.90;;;;;;4861834;29;19932;-64
2023/03/10 00:40:42;;;;;;;;;;;8.00;99.90;;;;;;4883243;29;19988;-64
2023/03/10 00:43:14;;;;;;;;;;;8.00;99.90;;;;;;4863899;29;19939;-64
2023/03/10 00:45:46;;;;;;;;;;;7.90;99.90;;;;;;4863355;29;19984;-64
2023/03/10 00:48:18;;;;;;;;;;;7.80;99.90;;;;;;4876824;29;20405;-64
2023/03/10 00:50:50;;;;;;;;;;;7.80;99.90;;;;;;4877329;29;20397;-64
2023/03/10 00:53:22;;;;;;;;;;;7.70;99.90;;;;;;4877100;29;19932;-64
2023/03/10 00:55:58;;;;;;;;;;;7.70;99.90;;;;;;4867582;29;20329;-64
2023/03/10 00:58:31;;;;;;;;;;;7.70;99.90;;;;;;4866330;29;19955;-63
2023/03/10 01:01:03;;;;;;;;;;;7.70;99.90;;;;;;4882912;29;19960;-63
2023/03/10 01:03:35;;;;;;;;;;;7.60;99.90;;;;;;4871454;29;19932;-64
2023/03/10 01:06:07;;;;;;;;;;;7.60;99.90;;;;;;4863215;29;19935;-64
2023/03/10 01:08:38;;;;;;;;;;;7.50;99.90;;;;;;4872567;29;19932;-63
2023/03/10 01:11:14;;;;;;;;;;;7.50;99.90;;;;;;4877486;29;20605;-64
2023/03/10 01:13:47;;;;;;;;;;;7.50;99.90;;;;;;4871231;29;19932;-64
2023/03/10 01:16:18;;;;;;;;;;;7.40;99.90;;;;;;4876382;29;19935;-64
2023/03/10 01:18:50;;;;;;;;;;;7.40;99.90;;;;;;4868389;29;19928;-64
2023/03/10 01:21:23;;;;;;;;;;;7.50;99.90;;;;;;4865050;29;19936;-64
2023/03/10 01:23:55;;;;;;;;;;;7.50;99.90;;;;;;4857977;29;19935;-65
2023/03/10 01:26:27;;;;;;;;;;;7.40;99.90;;;;;;4854451;29;19932;-64
2023/03/10 01:28:59;;;;;;;;;;;7.40;99.90;;;;;;4883531;29;20700;-64
2023/03/10 01:31:30;;;;;;;;;;;7.40;99.90;;;;;;4870551;29;19928;-65
2023/03/10 01:34:02;;;;;;;;;;;7.30;99.90;;;;;;4885254;29;19928;-64
2023/03/10 01:36:34;;;;;;;;;;;7.20;99.90;;;;;;4876787;29;19936;-64
2023/03/10 01:39:06;;;;;;;;;;;7.10;99.90;;;;;;4876181;29;19935;-64
2023/03/10 01:41:36;;;;;;;;;;;7.00;99.90;;;;;;4876592;29;19956;-64
2023/03/10 01:44:03;;;;;;;;;;;7.00;99.90;;;;;;4868133;29;20416;-64
2023/03/10 01:46:35;;;;;;;;;;;6.80;99.90;;;;;;4867518;29;20626;-64
2023/03/10 01:49:24;;;;;;;;;;;6.80;99.90;;;;;;4874438;29;20294;-64
2023/03/10 01:52:02;;;;;;;;;;;6.80;99.90;;;;;;4860952;29;19976;-64
2023/03/10 01:54:39;;;;;;;;;;;6.80;99.90;;;;;;4875866;29;19928;-64
2023/03/10 01:57:12;;;;;;;;;;;6.80;99.90;;;;;;4876691;29;19928;-63
2023/03/10 01:59:44;;;;;;;;;;;6.80;99.90;;;;;;4876841;29;19936;-64
2023/03/10 02:02:16;;;;;;;;;;;6.80;99.90;;;;;;4875570;29;20401;-64
2023/03/10 02:04:44;;;;;;;;;;;6.80;99.90;;;;;;4870819;29;19935;-63
2023/03/10 02:07:21;;;;;;;;;;;6.80;99.90;;;;;;4873355;29;19932;-63
2023/03/10 02:09:54;;;;;;;;;;;6.90;99.90;;;;;;4866583;29;19963;-64
2023/03/10 02:12:26;;;;;;;;;;;7.00;99.90;;;;;;4865549;29;19932;-64
2023/03/10 02:14:58;;;;;;;;;;;7.10;99.90;;;;;;4872537;29;19999;-64
2023/03/10 02:17:29;;;;;;;;;;;7.20;99.90;;;;;;4873402;29;19928;-64
2023/03/10 02:20:10;;;;;;;;;;;7.30;99.90;;;;;;4885029;29;20346;-64
2023/03/10 02:22:42;;;;;;;;;;;7.40;99.90;;;;;;4876227;29;19997;-65
2023/03/10 02:25:14;;;;;;;;;;;7.50;99.90;;;;;;4874610;29;19928;-64
2023/03/10 02:27:46;;;;;;;;;;;7.60;99.90;;;;;;4873141;29;20397;-64
2023/03/10 02:30:46;;;;;;;;;;;7.60;99.90;;;;;;4874788;29;20307;-64
2023/03/10 02:33:18;;;;;;;;;;;7.60;99.90;;;;;;4881029;29;19928;-64
2023/03/10 02:35:49;;;;;;;;;;;7.50;99.90;;;;;;4873443;29;20020;-63
2023/03/10 02:38:22;;;;;;;;;;;7.20;99.90;;;;;;4872240;29;19943;-64
2023/03/10 02:40:56;;;;;;;;;;;7.10;99.90;;;;;;4867819;29;19935;-64
2023/03/10 02:43:31;;;;;;;;;;;7.00;99.90;;;;;;4887077;29;19936;-64
2023/03/10 02:46:17;;;;;;;;;;;7.40;99.90;;;;;;4871667;29;20021;-64
2023/03/10 02:48:49;;;;;;;;;;;8.00;99.90;;;;;;4874914;29;19927;-64
2023/03/10 02:51:32;;;;;;;;;;;8.40;99.90;;;;;;4873741;29;19983;-63
2023/03/10 02:54:09;;;;;;;;;;;8.70;99.90;;;;;;4854765;29;19935;-63
2023/03/10 02:56:41;;;;;;;;;;;8.90;99.90;;;;;;4874821;29;20389;-64
2023/03/10 02:59:15;;;;;;;;;;;9.00;99.90;;;;;;4862740;29;19964;-63
2023/03/10 03:01:46;;;;;;;;;;;9.10;99.90;;;;;;4875034;29;19931;-64
2023/03/10 03:04:19;;;;;;;;;;;9.20;99.90;;;;;;4856995;29;20010;-64
2023/03/10 03:06:50;;;;;;;;;;;9.20;99.90;;;;;;4872796;29;19928;-64
2023/03/10 03:09:23;;;;;;;;;;;9.30;99.90;;;;;;4873781;29;20026;-63
2023/03/10 03:11:49;;;;;;;;;;;9.30;99.90;;;;;;4872950;29;19940;-64
2023/03/10 03:14:21;;;;;;;;;;;9.30;99.90;;;;;;4872750;29;19928;-64
2023/03/10 03:16:53;;;;;;;;;;;9.40;99.90;;;;;;4873197;29;19975;-63
2023/03/10 03:19:25;;;;;;;;;;;9.40;99.90;;;;;;4874464;29;19967;-63
2023/03/10 03:21:52;;;;;;;;;;;9.40;99.90;;;;;;4872540;29;20027;-64
2023/03/10 03:24:24;;;;;;;;;;;9.30;99.90;;;;;;4864915;29;19935;-63
2023/03/10 03:26:55;;;;;;;;;;;9.40;99.90;;;;;;4867524;29;19936;-64
2023/03/10 03:29:27;;;;;;;;;;;9.30;99.90;;;;;;4873638;29;19928;-64
2023/03/10 03:31:59;;;;;;;;;;;9.30;99.90;;;;;;4877476;29;19943;-64
2023/03/10 03:34:30;;;;;;;;;;;9.30;99.90;;;;;;4878343;29;20420;-64
2023/03/10 03:37:04;;;;;;;;;;;9.30;99.90;;;;;;4875469;29;19928;-64
2023/03/10 03:39:38;;;;;;;;;;;9.30;99.90;;;;;;4870394;29;20331;-64
2023/03/10 03:42:10;;;;;;;;;;;9.30;99.90;;;;;;4876641;29;19997;-64
2023/03/10 03:44:47;;;;;;;;;;;9.30;99.90;;;;;;4874761;29;20098;-64
2023/03/10 03:47:20;;;;;;;;;;;9.20;99.90;;;;;;4867612;29;19974;-64
2023/03/10 03:49:52;;;;;;;;;;;9.20;99.90;;;;;;4858159;29;19932;-63
2023/03/10 03:52:23;;;;;;;;;;;9.10;99.90;;;;;;4857327;29;19934;-64
2023/03/10 03:54:56;;;;;;;;;;;9.10;99.90;;;;;;4877111;29;19928;-64
2023/03/10 03:57:28;;;;;;;;;;;9.10;99.90;;;;;;4875409;29;19928;-64
2023/03/10 04:00:00;;;;;;;;;;;9.10;99.90;;;;;;4875729;29;19928;-64
2023/03/10 04:02:38;;;;;;;;;;;9.10;99.90;;;;;;4868416;29;19932;-64
2023/03/10 04:05:11;;;;;;;;;;;9.20;99.90;;;;;;4875906;29;19928;-64
2023/03/10 04:07:44;;;;;;;;;;;9.20;99.90;;;;;;4876056;29;19928;-64
2023/03/10 04:10:18;;;;;;;;;;;9.20;99.90;;;;;;4867585;29;20449;-63
2023/03/10 04:12:46;;;;;;;;;;;9.20;99.90;;;;;;4869860;29;20389;-64
2023/03/10 04:15:12;;;;;;;;;;;9.20;99.90;;;;;;4871589;29;20001;-64
2023/03/10 04:17:45;;;;;;;;;;;9.10;99.90;;;;;;4875247;29;20389;-64
2023/03/10 04:20:17;;;;;;;;;;;8.90;99.90;;;;;;4877733;29;19983;-64
2023/03/10 04:22:49;;;;;;;;;;;8.80;99.90;;;;;;4877602;29;20297;-64
2023/03/10 04:25:27;;;;;;;;;;;8.70;99.90;;;;;;4876620;29;19984;-64
2023/03/10 04:28:00;;;;;;;;;;;8.70;99.90;;;;;;4859331;29;19943;-64
2023/03/10 04:30:32;;;;;;;;;;;8.70;99.90;;;;;;4881288;29;20385;-64
2023/03/10 04:33:04;;;;;;;;;;;8.70;99.90;;;;;;4866847;29;20427;-64
2023/03/10 04:35:40;;;;;;;;;;;8.70;99.90;;;;;;4870987;29;19976;-64
2023/03/10 04:38:13;;;;;;;;;;;8.70;99.90;;;;;;4874154;29;19928;-65
2023/03/10 04:40:40;;;;;;;;;;;8.80;99.90;;;;;;4876912;29;19942;-80
2023/03/10 04:43:12;;;;;;;;;;;8.70;99.90;;;;;;4857545;29;19939;-64
2023/03/10 04:45:43;;;;;;;;;;;8.60;99.90;;;;;;4869894;29;19977;-64
2023/03/10 04:48:10;;;;;;;;;;;8.50;99.90;;;;;;4873666;29;20026;-64
2023/03/10 04:50:42;;;;;;;;;;;8.40;99.90;;;;;;4877579;29;19983;-64
2023/03/10 04:53:14;;;;;;;;;;;8.30;99.90;;;;;;4874982;29;19936;-64
2023/03/10 04:55:46;;;;;;;;;;;8.20;99.90;;;;;;4862821;29;20405;-65
2023/03/10 04:58:18;;;;;;;;;;;8.10;99.90;;;;;;4868132;29;20014;-64
2023/03/10 05:00:45;;;;;;;;;;;8.00;99.90;;;;;;4859823;29;20015;-64
2023/03/10 05:03:13;;;;;;;;;;;7.90;99.90;;;;;;4869717;29;19928;-65
2023/03/10 05:05:40;;;;;;;;;;;7.90;99.90;;;;;;4871022;29;19936;-64
2023/03/10 05:08:13;;;;;;;;;;;7.90;99.90;;;;;;4874269;29;20318;-65
2023/03/10 05:10:46;;;;;;;;;;;7.90;99.90;;;;;;4872510;29;19978;-64
2023/03/10 05:13:18;;;;;;;;;;;7.90;99.90;;;;;;4855416;29;19955;-64
2023/03/10 05:15:52;;;;;;;;;;;7.90;99.90;;;;;;4875337;29;20031;-64
2023/03/10 05:18:20;;;;;;;;;;;7.90;99.90;;;;;;4872883;29;19928;-65
2023/03/10 05:20:52;;;;;;;;;;;7.90;99.90;;;;;;4866513;29;19938;-64
2023/03/10 05:23:25;;;;;;;;;;;7.90;99.90;;;;;;4873975;29;19935;-65
2023/03/10 05:25:57;;;;;;;;;;;7.90;99.90;;;;;;4875660;29;20030;-64
2023/03/10 05:28:29;;;;;;;;;;;8.00;99.90;;;;;;4870011;29;20417;-64
2023/03/10 05:31:06;;;;;;;;;;;8.00;99.90;;;;;;4876983;29;19939;-65
2023/03/10 05:33:41;;;;;;;;;;;8.00;99.90;;;;;;4875172;29;19928;-65
2023/03/10 05:36:10;;;;;;;;;;;7.90;99.90;;;;;;4871626;29;19928;-65
2023/03/10 05:38:43;;;;;;;;;;;7.90;99.90;;;;;;4861012;29;19963;-65
2023/03/10 05:41:16;;;;;;;;;;;7.80;99.90;;;;;;4877710;29;19934;-66
2023/03/10 05:43:52;;;;;;;;;;;7.90;99.90;;;;;;4888079;29;19939;-66
2023/03/10 05:46:25;;;;;;;;;;;7.80;99.90;;;;;;4876628;29;19928;-65
2023/03/10 05:48:57;;;;;;;;;;;7.80;99.90;;;;;;4875210;29;20022;-65
2023/03/10 05:51:30;;;;;;;;;;;7.80;99.90;;;;;;4873275;29;20341;-65
2023/03/10 05:54:04;;;;;;;;;;;7.80;99.90;;;;;;4867780;29;20313;-65
2023/03/10 05:56:36;;;;;;;;;;;7.80;99.90;;;;;;4873953;29;19950;-65
2023/03/10 05:59:05;;;;;;;;;;;7.80;99.90;;;;;;4874640;29;20347;-65
2023/03/10 06:01:37;;;;;;;;;;;7.80;99.90;;;;;;4864947;29;20029;-65
2023/03/10 06:04:09;;;;;;;;;;;7.90;99.90;;;;;;4869735;29;19931;-65
2023/03/10 06:06:41;;;;;;;;;;;7.80;99.90;;;;;;4871108;29;19932;-65
2023/03/10 06:09:13;;;;;;;;;;;7.80;99.90;;;;;;4875825;29;19928;-65
2023/03/10 06:11:44;;;;;;;;;;;7.80;99.90;;;;;;4869506;29;19932;-65
2023/03/10 06:14:16;;;;;;;;;;;7.90;99.90;;;;;;4870279;29;20014;-65
2023/03/10 06:16:51;;;;;;;;;;;7.80;99.90;;;;;;4869270;29;19971;-65
2023/03/10 06:19:23;;;;;;;;;;;7.90;99.90;;;;;;4868440;29;19932;-64
2023/03/10 06:21:55;;;;;;;;;;;7.80;99.90;;;;;;4868191;29;19935;-64
2023/03/10 06:24:28;;;;;;;;;;;7.80;99.90;;;;;;4868895;29;19928;-64
2023/03/10 06:26:59;;;;;;;;;;;7.90;99.90;;;;;;4865135;29;19931;-64
2023/03/10 06:29:31;;;;;;;;;;;7.80;99.90;;;;;;4872060;29;19932;-64
2023/03/10 06:32:03;;;;;;;;;;;7.90;99.90;;;;;;4875197;29;19928;-65
2023/03/10 06:34:35;;;;;;;;;;;7.90;99.90;;;;;;4872462;29;19939;-64
2023/03/10 06:37:07;;;;;;;;;;;7.90;99.90;;;;;;4868498;29;19935;-64
2023/03/10 06:39:39;;;;;;;;;;;7.90;99.90;;;;;;4860295;29;20019;-64
2023/03/10 06:42:06;;;;;;;;;;;7.90;99.90;;;;;;4866223;29;20325;-64
2023/03/10 06:44:37;;;;;;;;;;;7.90;99.90;;;;;;4872605;29;19985;-64
2023/03/10 06:47:09;;;;;;;;;;;8.00;99.90;;;;;;4869307;29;19936;-64
2023/03/10 06:49:41;;;;;;;;;;;8.00;99.90;;;;;;4864581;29;19936;-64
2023/03/10 06:52:13;;;;;;;;;;;8.00;99.90;;;;;;4872894;29;19932;-64
2023/03/10 06:54:45;;;;;;;;;;;8.00;99.90;;;;;;4875268;29;19928;-64
2023/03/10 06:57:17;;;;;;;;;;;8.00;99.90;;;;;;4872341;29;19935;-64
2023/03/10 06:59:48;;;;;;;;;;;8.00;99.90;;;;;;4868542;29;20320;-64
2023/03/10 07:02:20;;;;;;;;;;;8.00;99.90;;;;;;4871394;29;19929;-64
2023/03/10 07:04:52;;;;;;;;;;;8.00;99.90;;;;;;4864318;29;20350;-64
2023/03/10 07:07:23;;;;;;;;;;;8.00;99.90;;;;;;4868699;29;19928;-64
2023/03/10 07:09:56;;;;;;;;;;;8.00;99.90;;;;;;4869426;29;20476;-64
2023/03/10 07:12:28;;;;;;;;;;;8.00;99.90;;;;;;4866600;29;19932;-64
2023/03/10 07:14:59;;;;;;;;;;;8.00;99.90;;;;;;4870935;29;19935;-64
2023/03/10 07:17:31;;;;;;;;;;;8.00;99.90;;;;;;4872969;29;20412;-64
2023/03/10 07:20:03;;;;;;;;;;;8.00;99.90;;;;;;4867376;29;19928;-64
2023/03/10 07:22:35;;;;;;;;;;;8.00;99.90;;;;;;4870647;29;19934;-65
2023/03/10 07:25:03;;;;;;;;;;;8.10;99.90;;;;;;4870007;29;19932;-64
2023/03/10 07:27:35;;;;;;;;;;;8.00;99.90;;;;;;4864197;29;20019;-65
2023/03/10 07:30:07;;;;;;;;;;;8.10;99.90;;;;;;4867141;29;19993;-64
2023/03/10 07:32:39;;;;;;;;;;;8.10;99.90;;;;;;4870444;29;19928;-64
2023/03/10 07:35:07;;;;;;;;;;;8.10;99.90;;;;;;4863976;29;19967;-64
2023/03/10 07:37:39;;;;;;;;;;;8.10;99.90;;;;;;4871991;29;19927;-64
2023/03/10 07:40:11;;;;;;;;;;;8.10;99.90;;;;;;4875370;29;19936;-64
2023/03/10 07:42:42;;;;;;;;;;;8.10;99.90;;;;;;4868499;29;19940;-64
2023/03/10 07:45:15;;;;;;;;;;;8.20;99.90;;;;;;4868203;29;19934;-65
2023/03/10 07:47:48;;;;;;;;;;;8.20;99.90;;;;;;4867475;29;19980;-65
2023/03/10 07:50:20;;;;;;;;;;;8.20;99.90;;;;;;4863963;29;20523;-64
2023/03/10 07:52:47;;;;;;;;;;;8.20;99.90;;;;;;4869975;29;19928;-64
2023/03/10 07:55:19;;;;;;;;;;;8.30;99.90;;;;;;4867021;29;19928;-65
2023/03/10 07:57:51;;;;;;;;;;;8.30;99.90;;;;;;4875208;29;20117;-64
2023/03/10 08:00:23;;;;;;;;;;;8.30;99.90;;;;;;4870157;29;20369;-64
2023/03/10 08:02:50;;;;;;;;;;;8.30;99.90;;;;;;4873837;29;19932;-65
2023/03/10 08:05:22;;;;;;;;;;;8.30;99.90;;;;;;4870284;29;20455;-64
2023/03/10 08:07:53;;;;;;;;;;;8.30;99.90;;;;;;4866294;29;19932;-64
2023/03/10 08:10:25;;;;;;;;;;;8.30;99.90;;;;;;4873798;29;19980;-64
2023/03/10 08:12:57;;;;;;;;;;;8.40;99.90;;;;;;4863641;29;19928;-64
2023/03/10 08:15:25;;;;;;;;;;;8.50;99.90;;;;;;4866298;29;19928;-64
2023/03/10 08:17:57;;;;;;;;;;;8.60;99.90;;;;;;4869222;29;19986;-64
2023/03/10 08:20:28;;;;;;;;;;;8.80;99.90;;;;;;4863291;29;19932;-64
2023/03/10 08:23:00;;;;;;;;;;;9.00;99.90;;;;;;4874761;29;20372;-65
2023/03/10 08:25:32;;;;;;;;;;;9.20;99.90;;;;;;4876668;29;19984;-64
2023/03/10 08:27:59;;;;;;;;;;;9.50;99.90;;;;;;4876737;29;19971;-65
2023/03/10 08:30:30;;;;;;;;;;;10.00;99.90;;;;;;4877323;29;19991;-64
2023/03/10 08:33:03;;;;;;;;;;;10.40;99.90;;;;;;4870110;29;19939;-64
2023/03/10 08:35:35;;;;;;;;;;;10.70;99.90;;;;;;4874538;29;20003;-64
2023/03/10 08:38:08;;;;;;;;;;;10.80;99.90;;;;;;4871654;29;19980;-64
2023/03/10 08:40:40;;;;;;;;;;;11.00;99.90;;;;;;4876805;29;19928;-64
2023/03/10 08:43:11;;;;;;;;;;;11.20;99.90;;;;;;4878648;29;19939;-64
2023/03/10 08:45:43;;;;;;;;;;;11.20;99.90;;;;;;4873462;29;19929;-64
2023/03/10 08:48:16;;;;;;;;;;;11.00;99.90;;;;;;4874167;29;19935;-64
2023/03/10 08:50:47;;;;;;;;;;;10.70;99.90;;;;;;4876576;29;20324;-64
2023/03/10 08:53:19;;;;;;;;;;;10.60;99.90;;;;;;4875559;29;19931;-64
2023/03/10 08:55:51;;;;;;;;;;;10.50;99.90;;;;;;4876994;29;19935;-64
2023/03/10 08:58:23;;;;;;;;;;;10.40;99.90;;;;;;4860957;29;19935;-64
2023/03/10 09:00:55;;;;;;;;;;;10.30;99.90;;;;;;4876600;29;19928;-64
2023/03/10 09:03:27;;;;;;;;;;;10.20;99.90;;;;;;4867982;29;19936;-64
2023/03/10 09:05:54;;;;;;;;;;;10.00;99.90;;;;;;4870568;29;19931;-64
2023/03/10 09:08:26;;;;;;;;;;;9.70;99.90;;;;;;4885703;29;19928;-64
2023/03/10 09:10:58;;;;;;;;;;;9.40;99.90;;;;;;4872083;29;19932;-65
2023/03/10 09:13:31;;;;;;;;;;;9.10;99.90;;;;;;4873435;29;19929;-64
2023/03/10 09:16:03;;;;;;;;;;;8.90;99.90;;;;;;4876405;29;19942;-64
2023/03/10 09:18:34;;;;;;;;;;;8.80;99.90;;;;;;4871958;29;19935;-64
2023/03/10 09:21:07;;;;;;;;;;;8.70;99.90;;;;;;4871081;29;20380;-64
2023/03/10 09:23:33;;;;;;;;;;;8.70;99.90;;;;;;4869621;29;19943;-64
2023/03/10 09:26:05;;;;;;;;;;;8.60;99.90;;;;;;4869045;29;20485;-64
2023/03/10 09:28:37;;;;;;;;;;;8.60;99.90;;;;;;4871819;29;19928;-64
2023/03/10 09:31:12;;;;;;;;;;;8.60;99.90;;;;;;4875715;29;19932;-64
2023/03/10 09:33:44;;;;;;;;;;;8.60;99.90;;;;;;4876804;29;19928;-64
2023/03/10 09:36:16;;;;;;;;;;;8.70;99.90;;;;;;4867913;29;19928;-65
2023/03/10 09:38:48;;;;;;;;;;;8.80;99.90;;;;;;4873467;29;19935;-64
2023/03/10 09:41:38;;;;;;;;;;;8.80;99.90;;;;;;4870948;29;19932;-64
2023/03/10 09:44:30;;;;;;;;;;;8.80;99.90;;;;;;4863634;29;19932;-64
2023/03/10 09:47:08;;;;;;;;;;;8.80;99.90;;;;;;4871601;29;20324;-64
2023/03/10 09:49:49;;;;;;;;;;;8.80;99.90;;;;;;4873944;29;19932;-65
2023/03/10 09:52:32;;;;;;;;;;;8.70;99.90;;;;;;4871067;29;20023;-65
2023/03/10 09:55:10;;;;;;;;;;;8.60;99.90;;;;;;4868551;29;19936;-64
2023/03/10 09:57:41;;;;;;;;;;;8.40;99.90;;;;;;4875107;29;20358;-64
2023/03/10 10:00:18;;;;;;;;;;;8.20;99.90;;;;;;4868358;29;19932;-64
2023/03/10 10:02:54;;;;;;;;;;;8.10;99.90;;;;;;4877318;29;19928;-64
2023/03/10 10:05:31;;;;;;;;;;;7.90;99.90;;;;;;4868085;29;19987;-64
2023/03/10 10:08:05;;;;;;;;;;;7.70;99.90;;;;;;4865776;29;19931;-64
2023/03/10 10:10:37;;;;;;;;;;;7.60;99.90;;;;;;4871338;29;19929;-64
2023/03/10 10:13:13;;;;;;;;;;;7.60;99.90;;;;;;4872887;29;19927;-64
2023/03/10 10:15:47;;;;;;;;;;;7.60;99.90;;;;;;4876091;29;19932;-64
2023/03/10 10:18:38;;;;;;;;;;;7.50;99.90;;;;;;4869849;29;20012;-64
2023/03/10 10:21:20;;;;;;;;;;;7.50;99.90;;;;;;4873834;29;19991;-65
2023/03/10 10:23:53;;;;;;;;;;;7.60;99.90;;;;;;4864007;29;20447;-65
2023/03/10 10:26:25;;;;;;;;;;;7.70;99.90;;;;;;4870170;29;19939;-65
2023/03/10 10:29:05;;;;;;;;;;;7.70;99.90;;;;;;4867232;29;20401;-65
2023/03/10 10:31:37;;;;;;;;;;;7.90;99.90;;;;;;4871184;29;19928;-65
2023/03/10 10:34:20;;;;;;;;;;;8.20;99.90;;;;;;4870001;29;19967;-66
2023/03/10 10:36:56;;;;;;;;;;;8.40;99.90;;;;;;4876538;29;20305;-66
2023/03/10 10:39:24;;;;;;;;;;;8.70;99.90;;;;;;4871031;29;19932;-66
2023/03/10 10:42:16;;;;;;;;;;;8.90;99.90;;;;;;4876669;29;20423;-66
2023/03/10 10:44:50;;;;;;;;;;;9.00;99.90;;;;;;4880932;29;19984;-65
2023/03/10 10:47:28;;;;;;;;;;;9.20;99.90;;;;;;4866863;29;19980;-65
2023/03/10 10:50:07;;;;;;;;;;;9.30;99.90;;;;;;4871549;29;19928;-64
2023/03/10 10:52:39;;;;;;;;;;;9.40;99.90;;;;;;4871084;29;20309;-65
2023/03/10 10:55:23;;;;;;;;;;;9.30;99.90;;;;;;4872035;29;19928;-65
2023/03/10 10:57:54;;;;;;;;;;;9.20;99.90;;;;;;4872305;29;19936;-65
2023/03/10 11:00:37;;;;;;;;;;;9.20;99.90;;;;;;4868454;29;20305;-64
2023/03/10 11:03:19;;;;;;;;;;;9.20;99.90;;;;;;4874297;29;20305;-64
2023/03/10 11:05:50;;;;;;;;;;;9.50;99.90;;;;;;4870208;29;19932;-65
2023/03/10 11:08:25;;;;;;;;;;;9.60;99.90;;;;;;4865420;29;19928;-64
2023/03/10 11:10:59;;;;;;;;;;;9.60;99.90;;;;;;4870520;29;19932;-64
2023/03/10 11:13:38;;;;;;;;;;;9.70;99.90;;;;;;4873681;29;19928;-64
2023/03/10 11:16:27;;;;;;;;;;;9.70;99.90;;;;;;4874577;29;19943;-63
2023/03/10 11:19:22;;;;;;;;;;;9.80;99.90;;;;;;4870084;29;19938;-66
2023/03/10 11:21:55;;;;;;;;;;;9.80;99.90;;;;;;4897649;29;20390;-64
2023/03/10 11:24:35;;;;;;;;;;;9.80;99.90;;;;;;4857957;29;19932;-65
2023/03/10 11:27:25;;;;;;;;;;;9.90;99.90;;;;;;4869574;29;20567;-64
2023/03/10 11:29:56;;;;;;;;;;;10.00;99.90;;;;;;4871477;29;19928;-64
2023/03/10 11:32:32;;;;;;;;;;;10.20;99.90;;;;;;4864290;29;19928;-64
2023/03/10 11:35:15;;;;;;;;;;;10.30;99.90;;;;;;4871173;29;19936;-64
2023/03/10 11:37:44;;;;;;;;;;;10.40;99.90;;;;;;4867959;29;19931;-64
2023/03/10 11:40:18;;;;;;;;;;;10.60;99.90;;;;;;4870732;29;19928;-64
2023/03/10 11:42:53;;;;;;;;;;;10.50;99.90;;;;;;4868523;29;19932;-64
2023/03/10 11:45:31;;;;;;;;;;;10.60;99.90;;;;;;4874020;29;19928;-65
2023/03/10 11:48:05;;;;;;;;;;;10.60;99.90;;;;;;4868612;29;19932;-63
2023/03/10 11:50:54;;;;;;;;;;;10.60;99.90;;;;;;4873499;29;19928;-66
2023/03/10 11:53:38;;;;;;;;;;;10.60;99.90;;;;;;4872255;29;19928;-63
2023/03/10 11:56:13;;;;;;;;;;;10.50;99.90;;;;;;4875746;29;19935;-64
2023/03/10 11:58:58;;;;;;;;;;;10.50;99.90;;;;;;4872307;29;19951;-64
2023/03/10 12:02:06;;;;;;;;;;;10.50;99.90;;;;;;4865853;29;20411;-64
2023/03/10 12:04:43;;;;;;;;;;;10.40;99.90;;;;;;4894018;29;19927;-65
2023/03/10 12:07:19;;;;;;;;;;;10.50;99.90;;;;;;4876765;29;20026;-64
2023/03/10 12:09:53;;;;;;;;;;;10.50;99.90;;;;;;4868833;29;19935;-64
2023/03/10 12:12:30;;;;;;;;;;;10.50;99.90;;;;;;4873067;29;20334;-63
2023/03/10 12:15:16;;;;;;;;;;;10.50;99.90;;;;;;4877032;29;20415;-63
2023/03/10 12:17:48;;;;;;;;;;;10.50;99.90;;;;;;4867842;29;19932;-64
2023/03/10 12:20:20;;;;;;;;;;;10.50;99.90;;;;;;4877514;29;19928;-64
2023/03/10 12:22:51;;;;;;;;;;;10.60;99.90;;;;;;4874475;29;20031;-64
2023/03/10 12:25:29;;;;;;;;;;;10.60;99.90;;;;;;4870502;29;19931;-64
2023/03/10 12:28:16;;;;;;;;;;;10.50;99.90;;;;;;4873152;29;19993;-64
2023/03/10 12:30:57;;;;;;;;;;;10.50;99.90;;;;;;4876791;29;19952;-64
2023/03/10 12:33:29;;;;;;;;;;;10.60;99.90;;;;;;4871961;29;19939;-64
2023/03/10 12:36:01;;;;;;;;;;;10.60;99.90;;;;;;4872435;29;19928;-64
2023/03/10 12:38:39;;;;;;;;;;;10.50;99.90;;;;;;4873328;29;20398;-63
2023/03/10 12:41:06;;;;;;;;;;;10.50;99.90;;;;;;4869766;29;19938;-63
2023/03/10 12:43:57;;;;;;;;;;;10.50;99.90;;;;;;4874870;29;19931;-64
2023/03/10 12:46:46;;;;;;;;;;;10.50;99.90;;;;;;4866867;29;20060;-63
2023/03/10 12:49:20;;;;;;;;;;;10.50;99.90;;;;;;4871480;29;20027;-64
2023/03/10 12:52:12;;;;;;;;;;;10.50;99.90;;;;;;4855461;29;19928;-63
2023/03/10 12:54:53;;;;;;;;;;;10.50;99.90;;;;;;4868496;29;19931;-64
2023/03/10 12:57:43;;;;;;;;;;;10.40;99.90;;;;;;4873772;29;19935;-63
2023/03/10 13:00:19;;;;;;;;;;;10.40;99.90;;;;;;4875068;29;19931;-63
2023/03/10 13:03:06;;;;;;;;;;;10.40;99.90;;;;;;4866489;29;20422;-63
2023/03/10 13:05:50;;;;;;;;;;;10.40;99.90;;;;;;4875979;29;19928;-64
2023/03/10 13:08:32;;;;;;;;;;;10.30;99.90;;;;;;4858029;29;20460;-64
2023/03/10 13:11:06;;;;;;;;;;;10.30;99.90;;;;;;4877220;29;19931;-64
2023/03/10 13:13:38;;;;;;;;;;;10.30;99.90;;;;;;4871414;29;19935;-63
2023/03/10 13:16:15;;;;;;;;;;;10.30;99.90;;;;;;4873790;29;19983;-64
2023/03/10 13:18:47;;;;;;;;;;;10.30;99.90;;;;;;4874165;29;19974;-64
2023/03/10 13:21:23;;;;;;;;;;;10.30;99.90;;;;;;4872338;29;20309;-63
2023/03/10 13:23:56;;;;;;;;;;;10.10;99.90;;;;;;4873506;29;19935;-64
2023/03/10 13:26:28;;;;;;;;;;;10.10;99.90;;;;;;4873515;29;20412;-63
2023/03/10 13:29:01;;;;;;;;;;;10.00;99.90;;;;;;4876007;29;19932;-63
2023/03/10 13:31:33;;;;;;;;;;;9.90;99.90;;;;;;4873209;29;20007;-64
2023/03/10 13:34:17;;;;;;;;;;;9.90;99.90;;;;;;4875435;29;19928;-64
2023/03/10 13:36:45;;;;;;;;;;;9.90;99.90;;;;;;4873845;29;19934;-64
2023/03/10 13:39:25;;;;;;;;;;;9.90;99.90;;;;;;4873303;29;19932;-64
2023/03/10 13:41:58;;;;;;;;;;;10.00;99.90;;;;;;4872682;29;19976;-64
2023/03/10 13:44:36;;;;;;;;;;;9.80;99.90;;;;;;4874279;29;19931;-64
2023/03/10 13:47:16;;;;;;;;;;;9.70;99.90;;;;;;4868543;29;19949;-63
2023/03/10 13:49:53;;;;;;;;;;;9.50;99.90;;;;;;4875752;29;20358;-63
2023/03/10 13:52:27;;;;;;;;;;;9.30;99.90;;;;;;4874442;29;19928;-63
2023/03/10 13:55:03;;;;;;;;;;;9.20;99.90;;;;;;4874130;29;19935;-64
2023/03/10 13:57:35;;;;;;;;;;;9.10;99.90;;;;;;4873093;29;19980;-64
2023/03/10 14:00:14;;;;;;;;;;;9.10;99.90;;;;;;4875820;29;19931;-64
2023/03/10 14:02:47;;;;;;;;;;;9.10;99.90;;;;;;4886290;29;19932;-64
2023/03/10 14:05:38;;;;;;;;;;;9.10;99.90;;;;;;4871910;29;19927;-64
2023/03/10 14:08:24;;;;;;;;;;;9.00;99.90;;;;;;4872481;29;20524;-63
2023/03/10 14:11:14;;;;;;;;;;;8.90;99.90;;;;;;4873714;29;19935;-64
2023/03/10 14:13:46;;;;;;;;;;;8.80;99.90;;;;;;4873438;29;20472;-64
2023/03/10 14:16:17;;;;;;;;;;;8.80;99.90;;;;;;4875019;29;20346;-64
2023/03/10 14:18:49;;;;;;;;;;;8.80;99.90;;;;;;4873046;29;19942;-64
2023/03/10 14:21:22;;;;;;;;;;;8.70;99.90;;;;;;4874504;29;21041;-64
2023/03/10 14:23:50;;;;;;;;;;;8.70;99.90;;;;;;4873239;29;19935;-65
2023/03/10 14:26:22;;;;;;;;;;;8.70;99.90;;;;;;4870991;29;19932;-64
2023/03/10 14:28:49;;;;;;;;;;;8.80;99.90;;;;;;4875723;29;19935;-64
2023/03/10 14:31:22;;;;;;;;;;;8.70;99.90;;;;;;4874853;29;19943;-64
2023/03/10 14:33:53;;;;;;;;;;;8.60;99.90;;;;;;4870314;29;19928;-64
2023/03/10 14:36:25;;;;;;;;;;;8.60;99.90;;;;;;4875410;29;20370;-65
2023/03/10 14:38:57;;;;;;;;;;;8.50;99.90;;;;;;4875668;29;20015;-64
2023/03/10 14:41:29;;;;;;;;;;;8.40;99.90;;;;;;4873379;29;20419;-64
2023/03/10 14:44:01;;;;;;;;;;;8.30;99.90;;;;;;4870275;29;19951;-64
2023/03/10 14:46:33;;;;;;;;;;;8.10;99.90;;;;;;4874663;29;19928;-64
2023/03/10 14:49:07;;;;;;;;;;;8.10;99.90;;;;;;4873919;29;19931;-64
2023/03/10 14:51:39;;;;;;;;;;;8.00;99.90;;;;;;4857459;29;19932;-64
2023/03/10 14:54:21;;;;;;;;;;;7.90;99.90;;;;;;4873511;29;19931;-64
2023/03/10 14:56:59;;;;;;;;;;;8.00;99.90;;;;;;4857007;29;20023;-64
2023/03/10 14:59:27;;;;;;;;;;;8.00;99.90;;;;;;4873084;29;19932;-64
2023/03/10 15:02:03;;;;;;;;;;;8.00;99.90;;;;;;4872687;29;19940;-64
2023/03/10 15:04:35;;;;;;;;;;;8.00;99.90;;;;;;4873804;29;19928;-64
2023/03/10 15:07:08;;;;;;;;;;;8.10;99.90;;;;;;4869886;29;19955;-64